Time;durP1;ratioP1;P1;durP2;ratioP2;P2;SDS_P1;SDS_P2;PMS_P1;PMS_P2;Temp;Humidity;BMP_temperature;BMP_pressure;BME280_temperature;BME280_humidity;BME280_pressure;Samples;Min_cycle;Max_cycle;Signal;HPM_P1;HPM_P2
2023/10/19 04:35:47;;;;;;;2.30;2.10;;;;;;;;;;5083812;27;20823;-83
2023/10/19 04:38:13;;;;;;;1.50;1.40;;;;;;;;;;5081491;28;20047;-83
2023/10/19 04:40:39;;;;;;;1.63;1.30;;;;;;;;;;5084454;28;20036;-84
2023/10/19 04:43:05;;;;;;;1.83;1.20;;;;;;;;;;5081953;28;20913;-84
2023/10/19 04:45:30;;;;;;;1.00;1.00;;;;;;;;;;5083740;28;20020;-84
2023/10/19 04:47:56;;;;;;;2.58;1.13;;;;;;;;;;5082289;28;20453;-85
2023/10/19 04:50:27;;;;;;;3.67;1.52;;;;;;;;;;5081973;28;20024;-83
2023/10/19 04:52:53;;;;;;;3.83;2.17;;;;;;;;;;5085650;28;20475;-83
2023/10/19 04:55:21;;;;;;;2.22;1.73;;;;;;;;;;5083403;28;20032;-83
2023/10/19 04:57:47;;;;;;;1.38;1.27;;;;;;;;;;5086289;28;20032;-84
2023/10/19 05:00:17;;;;;;;2.17;1.98;;;;;;;;;;5084338;28;20042;-85
2023/10/19 05:02:45;;;;;;;1.70;1.60;;;;;;;;;;5085759;28;20413;-84
2023/10/19 05:05:10;;;;;;;2.50;1.65;;;;;;;;;;5084672;28;20073;-84
2023/10/19 05:07:36;;;;;;;2.75;1.42;;;;;;;;;;5081725;28;20068;-83
2023/10/19 05:10:02;;;;;;;1.23;1.13;;;;;;;;;;5084900;28;20056;-83
2023/10/19 05:12:30;;;;;;;1.25;1.08;;;;;;;;;;5085901;28;20028;-82
2023/10/19 05:14:59;;;;;;;3.08;2.13;;;;;;;;;;5086838;28;20024;-82
2023/10/19 05:17:24;;;;;;;1.10;1.00;;;;;;;;;;5086408;28;20028;-83
2023/10/19 05:19:50;;;;;;;2.67;1.63;;;;;;;;;;5086863;28;20028;-83
2023/10/19 05:22:16;;;;;;;1.45;1.10;;;;;;;;;;5086869;28;20036;-84
2023/10/19 05:24:42;;;;;;;2.85;2.65;;;;;;;;;;5087980;28;20020;-82
2023/10/19 05:27:09;;;;;;;4.22;3.05;;;;;;;;;;5083527;28;20031;-84
2023/10/19 05:29:35;;;;;;;2.72;2.53;;;;;;;;;;5084804;28;20139;-83
2023/10/19 05:32:02;;;;;;;3.40;2.03;;;;;;;;;;5082800;28;20032;-84
2023/10/19 05:34:32;;;;;;;1.98;1.52;;;;;;;;;;5084643;28;20473;-83
2023/10/19 05:37:02;;;;;;;2.05;1.52;;;;;;;;;;5086068;28;20024;-83
2023/10/19 05:39:31;;;;;;;;;;;;;;;;;;5087131;28;20379;-84
2023/10/19 05:42:04;;;;;;;5.68;1.60;;;;;;;;;;5082836;28;20348;-84
2023/10/19 05:44:32;;;;;;;7.05;3.10;;;;;;;;;;5085152;28;20119;-84
2023/10/19 05:47:02;;;;;;;5.60;3.67;;;;;;;;;;5072698;28;20032;-83
2023/10/19 05:49:30;;;;;;;2.70;2.17;;;;;;;;;;5072567;28;20020;-83
2023/10/19 05:51:56;;;;;;;3.67;2.05;;;;;;;;;;5073341;28;20444;-83
2023/10/19 05:54:23;;;;;;;2.72;2.35;;;;;;;;;;5069941;28;20119;-84
2023/10/19 05:56:49;;;;;;;3.28;2.33;;;;;;;;;;5071989;28;20025;-84
2023/10/19 05:59:15;;;;;;;3.33;1.90;;;;;;;;;;5071406;28;20032;-81
2023/10/19 06:01:41;;;;;;;4.93;2.55;;;;;;;;;;5068556;28;20233;-82
2023/10/19 06:04:07;;;;;;;2.30;1.83;;;;;;;;;;5068361;28;20136;-82
2023/10/19 06:06:32;;;;;;;2.45;1.88;;;;;;;;;;5071955;28;20158;-84
2023/10/19 06:08:58;;;;;;;5.13;2.65;;;;;;;;;;5070254;28;20032;-85
2023/10/19 06:11:23;;;;;;;3.55;2.47;;;;;;;;;;5069813;28;20036;-85
2023/10/19 06:13:49;;;;;;;2.95;2.42;;;;;;;;;;5070357;28;20062;-84
2023/10/19 06:16:14;;;;;;;2.55;1.77;;;;;;;;;;5066907;28;20024;-84
2023/10/19 06:18:40;;;;;;;4.15;2.90;;;;;;;;;;5067912;28;20032;-84
2023/10/19 06:21:05;;;;;;;3.90;1.92;;;;;;;;;;5068301;28;20028;-86
2023/10/19 06:23:34;;;;;;;5.05;2.88;;;;;;;;;;5068454;28;20024;-84
2023/10/19 06:26:03;;;;;;;5.15;3.45;;;;;;;;;;5068382;28;20352;-85
2023/10/19 06:28:31;;;;;;;5.43;3.35;;;;;;;;;;5066397;28;20031;-84
2023/10/19 06:30:59;;;;;;;3.92;2.80;;;;;;;;;;5071597;28;20021;-89
2023/10/19 06:33:24;;;;;;;4.70;3.47;;;;;;;;;;5070086;28;20040;-84
2023/10/19 06:35:50;;;;;;;8.40;3.85;;;;;;;;;;5070655;28;20024;-84
2023/10/19 06:38:15;;;;;;;5.30;3.30;;;;;;;;;;5073396;28;20021;-84
2023/10/19 06:40:42;;;;;;;7.35;5.50;;;;;;;;;;5072891;28;20057;-83
2023/10/19 06:43:07;;;;;;;7.78;4.68;;;;;;;;;;5070391;28;20020;-84
2023/10/19 06:45:33;;;;;;;5.95;3.40;;;;;;;;;;5070132;28;20024;-85
2023/10/19 06:48:00;;;;;;;7.97;4.10;;;;;;;;;;5071482;28;20032;-84
2023/10/19 06:50:26;;;;;;;4.35;2.67;;;;;;;;;;5071493;28;20031;-86
2023/10/19 06:52:51;;;;;;;7.93;4.70;;;;;;;;;;5072654;28;20117;-85
2023/10/19 06:55:22;;;;;;;7.75;4.13;;;;;;;;;;5072983;28;20068;-85
2023/10/19 06:57:51;;;;;;;4.68;3.17;;;;;;;;;;5070456;28;20387;-85
2023/10/19 07:00:27;;;;;;;7.60;4.18;;;;;;;;;;5070405;28;20028;-86
2023/10/19 07:02:55;;;;;;;7.57;3.60;;;;;;;;;;5071899;28;20123;-86
2023/10/19 07:05:23;;;;;;;7.32;4.05;;;;;;;;;;5071345;28;20514;-83
2023/10/19 07:07:51;;;;;;;6.25;3.65;;;;;;;;;;5071703;28;20056;-86
2023/10/19 07:10:19;;;;;;;6.38;4.45;;;;;;;;;;5069144;28;20035;-88
2023/10/19 07:12:46;;;;;;;4.00;2.25;;;;;;;;;;5069940;28;20085;-87
2023/10/19 07:15:18;;;;;;;9.13;3.92;;;;;;;;;;5070486;28;20024;-86
2023/10/19 07:17:45;;;;;;;5.90;3.58;;;;;;;;;;5068625;28;20383;-85
2023/10/19 07:20:25;;;;;;;6.53;3.08;;;;;;;;;;5071109;28;20027;-86
2023/10/19 07:23:26;;;;;;;;;;;;;;;;;;5070242;28;20111;-86
2023/10/19 07:25:54;;;;;;;3.10;1.50;;;;;;;;;;5068238;28;20374;-85
2023/10/19 07:28:20;;;;;;;4.55;2.97;;;;;;;;;;5071156;28;20068;-85
2023/10/19 07:30:49;;;;;;;6.30;2.80;;;;;;;;;;5072015;28;20514;-85
2023/10/19 07:33:18;;;;;;;3.08;2.38;;;;;;;;;;5072195;28;20144;-87
2023/10/19 07:35:46;;;;;;;6.13;3.47;;;;;;;;;;5071555;28;20035;-86
2023/10/19 07:38:16;;;;;;;4.40;3.25;;;;;;;;;;5071916;28;20035;-86
2023/10/19 07:40:43;;;;;;;4.63;3.13;;;;;;;;;;5072430;28;20016;-86
2023/10/19 07:43:09;;;;;;;6.47;3.08;;;;;;;;;;5071342;28;20024;-87
2023/10/19 07:45:36;;;;;;;7.45;3.55;;;;;;;;;;5071348;28;20073;-88
2023/10/19 07:48:06;;;;;;;2.97;2.45;;;;;;;;;;5072237;28;20086;-87
2023/10/19 07:50:36;;;;;;;5.53;3.28;;;;;;;;;;5070908;28;20021;-86
2023/10/19 07:53:01;;;;;;;;;;;;;;;;;;5071780;28;20071;-86
2023/10/19 07:55:27;;;;;;;3.85;2.47;;;;;;;;;;5070615;28;20015;-86
2023/10/19 07:57:53;;;;;;;3.75;2.42;;;;;;;;;;5070090;28;20041;-86
2023/10/19 08:00:20;;;;;;;7.47;2.58;;;;;;;;;;5071547;28;20059;-86
2023/10/19 08:02:46;;;;;;;5.97;2.55;;;;;;;;;;5071738;28;20032;-86
2023/10/19 08:05:15;;;;;;;3.83;2.03;;;;;;;;;;5071818;28;20039;-86
2023/10/19 08:07:45;;;;;;;3.75;2.65;;;;;;;;;;5071768;28;20032;-86
2023/10/19 08:10:12;;;;;;;2.28;1.77;;;;;;;;;;5071336;28;20035;-85
2023/10/19 08:12:41;;;;;;;3.95;2.13;;;;;;;;;;5071767;28;20103;-86
2023/10/19 08:15:07;;;;;;;4.43;2.25;;;;;;;;;;5070693;28;20375;-86
2023/10/19 08:17:33;;;;;;;4.47;2.63;;;;;;;;;;5071085;28;20074;-86
2023/10/19 08:20:02;;;;;;;2.00;1.85;;;;;;;;;;5071171;28;20039;-86
2023/10/19 08:22:28;;;;;;;10.98;2.80;;;;;;;;;;5069563;28;20544;-86
2023/10/19 08:24:54;;;;;;;6.22;2.35;;;;;;;;;;5072155;28;20025;-87
2023/10/19 08:27:21;;;;;;;1.75;1.50;;;;;;;;;;5068941;28;20036;-87
2023/10/19 08:29:46;;;;;;;3.90;2.38;;;;;;;;;;5071031;28;20365;-85
2023/10/19 08:32:14;;;;;;;4.60;2.17;;;;;;;;;;5069831;28;20028;-86
2023/10/19 08:34:41;;;;;;;2.13;1.58;;;;;;;;;;5069985;28;20051;-86
2023/10/19 08:37:07;;;;;;;3.88;2.20;;;;;;;;;;5070973;28;20028;-84
2023/10/19 08:39:36;;;;;;;5.07;2.92;;;;;;;;;;5069767;28;20499;-86
2023/10/19 08:42:06;;;;;;;4.17;2.93;;;;;;;;;;5069833;28;20487;-86
2023/10/19 08:44:31;;;;;;;;;;;;;;;;;;5070100;28;20107;-85
2023/10/19 08:46:59;;;;;;;4.60;2.33;;;;;;;;;;5070175;28;20003;-86
2023/10/19 08:49:26;;;;;;;4.07;1.85;;;;;;;;;;5069834;28;20024;-87
2023/10/19 08:51:54;;;;;;;2.22;1.35;;;;;;;;;;5068990;28;20024;-87
2023/10/19 08:54:19;;;;;;;4.20;3.13;;;;;;;;;;5070743;28;20029;-86
2023/10/19 08:56:47;;;;;;;3.13;1.80;;;;;;;;;;5069634;28;20108;-86
2023/10/19 08:59:15;;;;;;;5.13;1.63;;;;;;;;;;5067765;28;20440;-86
2023/10/19 09:01:43;;;;;;;5.15;2.55;;;;;;;;;;5069514;28;20029;-86
2023/10/19 09:04:18;;;;;;;3.28;2.22;;;;;;;;;;5070460;28;20028;-86
2023/10/19 09:06:45;;;;;;;2.60;1.33;;;;;;;;;;5069122;28;20028;-86
2023/10/19 09:09:20;;;;;;;4.05;2.47;;;;;;;;;;5069828;28;20059;-87
2023/10/19 09:11:48;;;;;;;5.25;2.63;;;;;;;;;;5069102;28;20029;-86
2023/10/19 09:14:14;;;;;;;3.50;2.28;;;;;;;;;;5069339;28;20103;-86
2023/10/19 09:16:57;;;;;;;4.13;2.78;;;;;;;;;;5069566;28;20036;-86
2023/10/19 09:19:43;;;;;;;3.28;2.97;;;;;;;;;;5070219;28;20025;-86
2023/10/19 09:22:19;;;;;;;3.17;2.28;;;;;;;;;;5074346;28;20044;-91
2023/10/19 09:24:53;;;;;;;3.38;2.08;;;;;;;;;;5074933;28;20099;-88
2023/10/19 09:27:20;;;;;;;6.18;2.75;;;;;;;;;;5074474;28;20029;-87
2023/10/19 09:29:46;;;;;;;4.57;2.25;;;;;;;;;;5073854;28;20094;-87
2023/10/19 09:32:16;;;;;;;3.08;2.10;;;;;;;;;;5074067;28;20024;-88
2023/10/19 09:34:44;;;;;;;3.42;1.90;;;;;;;;;;5069870;28;20047;-84
2023/10/19 09:37:11;;;;;;;5.93;3.10;;;;;;;;;;5073889;28;20063;-88
2023/10/19 09:39:37;;;;;;;4.18;1.63;;;;;;;;;;5071778;28;20847;-82
2023/10/19 09:42:06;;;;;;;2.58;2.15;;;;;;;;;;5071569;28;20055;-85
2023/10/19 09:44:45;;;;;;;2.50;1.80;;;;;;;;;;5073526;28;20035;-83
2023/10/19 09:47:39;;;;;;;2.03;1.30;;;;;;;;;;5072634;28;20043;-88
2023/10/19 09:50:06;;;;;;;2.97;1.70;;;;;;;;;;5067985;28;20064;-84
2023/10/19 09:52:33;;;;;;;1.48;1.20;;;;;;;;;;5075871;28;20460;-83
2023/10/19 09:55:06;;;;;;;2.08;1.73;;;;;;;;;;5073635;28;20085;-89
2023/10/19 09:57:49;;;;;;;2.15;1.65;;;;;;;;;;5073168;28;20115;-86
2023/10/19 10:00:20;;;;;;;1.38;1.05;;;;;;;;;;5073972;28;20388;-88
2023/10/19 10:02:49;;;;;;;2.50;1.90;;;;;;;;;;5074328;28;20028;-89
2023/10/19 10:05:42;;;;;;;1.80;1.45;;;;;;;;;;5074929;28;20349;-90
2023/10/19 10:08:29;;;;;;;3.22;1.48;;;;;;;;;;5071555;28;20067;-88
2023/10/19 10:10:55;;;;;;;3.53;1.90;;;;;;;;;;5071303;28;20031;-88
2023/10/19 10:13:32;;;;;;;3.30;2.33;;;;;;;;;;5071936;28;20460;-90
2023/10/19 10:16:21;;;;;;;2.72;2.15;;;;;;;;;;5074672;28;20495;-90
2023/10/19 10:19:08;;;;;;;3.40;1.83;;;;;;;;;;5072311;28;20108;-89
2023/10/19 10:22:00;;;;;;;4.03;2.25;;;;;;;;;;5074335;28;20108;-89
2023/10/19 10:24:25;;;;;;;3.65;2.15;;;;;;;;;;5068522;28;20427;-89
2023/10/19 10:27:00;;;;;;;5.32;2.28;;;;;;;;;;5072797;28;20082;-86
2023/10/19 10:29:26;;;;;;;2.28;1.60;;;;;;;;;;5071301;28;20024;-85
2023/10/19 10:31:52;;;;;;;2.78;1.63;;;;;;;;;;5072932;28;20024;-88
2023/10/19 10:34:35;;;;;;;3.10;1.58;;;;;;;;;;5074690;28;20040;-90
2023/10/19 10:37:07;;;;;;;4.50;1.85;;;;;;;;;;5073025;28;20385;-85
2023/10/19 10:39:35;;;;;;;2.25;1.65;;;;;;;;;;5072679;28;20077;-87
2023/10/19 10:42:18;;;;;;;3.42;1.60;;;;;;;;;;5074423;28;20028;-89
2023/10/19 10:44:50;;;;;;;2.97;1.83;;;;;;;;;;5071752;28;20066;-89
2023/10/19 10:47:29;;;;;;;6.50;2.53;;;;;;;;;;5075202;28;20360;-90
2023/10/19 10:50:01;;;;;;;4.10;2.15;;;;;;;;;;5075626;28;20020;-90
2023/10/19 10:53:17;;;;;;;5.13;2.63;;;;;;;;;;5075477;28;20512;-90
2023/10/19 10:55:45;;;;;;;2.20;1.55;;;;;;;;;;5058845;28;20382;-92
2023/10/19 11:01:44;;;;;;;;;;;;;;;;;;;;;
2023/10/19 11:04:24;;;;;;;14.50;2.47;;;;;;;;;;5073013;28;21543;-89
2023/10/19 11:07:18;;;;;;;2.33;1.88;;;;;;;;;;5075418;28;20032;-90
2023/10/19 11:09:45;;;;;;;4.22;2.15;;;;;;;;;;5071089;28;20032;-88
2023/10/19 11:12:26;;;;;;;3.40;2.40;;;;;;;;;;5075635;28;20480;-90
2023/10/19 11:15:24;;;;;;;2.72;2.00;;;;;;;;;;5074888;28;20111;-90
2023/10/19 11:18:32;;;;;;;3.80;1.48;;;;;;;;;;5074852;28;20036;-89
2023/10/19 11:21:06;;;;;;;4.28;1.90;;;;;;;;;;5072845;28;20128;-87
2023/10/19 11:23:46;;;;;;;4.28;2.22;;;;;;;;;;5073920;28;20028;-88
2023/10/19 11:26:27;;;;;;;2.38;1.60;;;;;;;;;;5076999;28;20032;-89
2023/10/19 11:29:01;;;;;;;2.95;2.13;;;;;;;;;;5076908;28;20048;-89
2023/10/19 11:31:39;;;;;;;1.83;1.50;;;;;;;;;;5075386;28;20034;-90
2023/10/19 11:34:06;;;;;;;2.50;1.73;;;;;;;;;;5076380;28;20037;-84
2023/10/19 11:36:31;;;;;;;0.95;0.82;;;;;;;;;;5073345;28;20033;-85
2023/10/19 11:38:57;;;;;;;2.90;2.10;;;;;;;;;;5073570;28;20029;-83
2023/10/19 11:41:23;;;;;;;3.28;2.05;;;;;;;;;;5074325;28;20032;-83
2023/10/19 11:43:49;;;;;;;5.15;1.73;;;;;;;;;;5075044;28;20031;-83
2023/10/19 11:46:17;;;;;;;2.80;1.60;;;;;;;;;;5076533;28;20024;-85
2023/10/19 11:48:44;;;;;;;1.90;1.48;;;;;;;;;;5072688;28;20541;-83
2023/10/19 11:51:14;;;;;;;3.83;1.95;;;;;;;;;;5075382;28;20036;-85
2023/10/19 11:53:40;;;;;;;4.07;1.90;;;;;;;;;;5068917;28;20052;-83
2023/10/19 11:56:09;;;;;;;3.63;2.20;;;;;;;;;;5072008;28;20047;-82
2023/10/19 11:58:35;;;;;;;3.22;1.67;;;;;;;;;;5074501;28;20024;-81
2023/10/19 12:01:08;;;;;;;1.80;1.33;;;;;;;;;;5074719;28;20094;-83
2023/10/19 12:03:36;;;;;;;2.70;1.90;;;;;;;;;;5073932;28;20034;-83
2023/10/19 12:06:06;;;;;;;2.33;1.53;;;;;;;;;;5075360;28;20028;-82
2023/10/19 12:08:33;;;;;;;;;;;;;;;;;;5077112;28;20040;-83
2023/10/19 12:10:58;;;;;;;3.38;2.38;;;;;;;;;;5069119;28;19919;-83
2023/10/19 12:13:24;;;;;;;1.58;1.48;;;;;;;;;;5070026;28;20376;-82
2023/10/19 12:15:54;;;;;;;3.45;1.95;;;;;;;;;;5068708;28;20086;-82
2023/10/19 12:18:20;;;;;;;5.65;2.17;;;;;;;;;;5070523;28;20035;-83
2023/10/19 12:20:47;;;;;;;1.10;1.02;;;;;;;;;;5068231;28;20040;-83
2023/10/19 12:23:13;;;;;;;3.83;2.58;;;;;;;;;;5067805;28;20090;-84
2023/10/19 12:25:38;;;;;;;3.10;1.50;;;;;;;;;;5067047;28;20012;-83
2023/10/19 12:28:04;;;;;;;1.83;1.42;;;;;;;;;;5069796;28;20028;-81
2023/10/19 12:30:36;;;;;;;3.30;2.08;;;;;;;;;;5069568;28;20031;-81
2023/10/19 12:33:11;;;;;;;3.70;2.13;;;;;;;;;;5066722;28;20106;-81
2023/10/19 12:35:48;;;;;;;2.63;1.42;;;;;;;;;;5068776;28;20546;-81
2023/10/19 12:38:16;;;;;;;2.70;1.83;;;;;;;;;;5067379;28;20377;-81
2023/10/19 12:40:46;;;;;;;3.00;1.67;;;;;;;;;;5067967;28;20169;-81
2023/10/19 12:43:13;;;;;;;4.00;1.38;;;;;;;;;;5068533;28;20024;-81
2023/10/19 12:45:39;;;;;;;8.02;2.15;;;;;;;;;;5069380;28;20554;-81
2023/10/19 12:48:06;;;;;;;2.88;1.42;;;;;;;;;;5069147;28;20024;-81
2023/10/19 12:50:34;;;;;;;1.88;1.50;;;;;;;;;;5070383;28;20493;-84
2023/10/19 12:53:00;;;;;;;4.78;2.08;;;;;;;;;;5069219;28;20372;-83
2023/10/19 12:55:27;;;;;;;2.15;1.73;;;;;;;;;;5068378;28;20526;-83
2023/10/19 12:57:53;;;;;;;2.17;1.77;;;;;;;;;;5072015;28;20034;-82
2023/10/19 13:00:35;;;;;;;2.95;1.80;;;;;;;;;;5073007;28;20029;-83
2023/10/19 13:03:05;;;;;;;2.05;1.55;;;;;;;;;;5073440;28;20043;-85
2023/10/19 13:05:37;;;;;;;2.65;1.88;;;;;;;;;;5074320;28;20267;-84
2023/10/19 13:08:09;;;;;;;1.90;1.58;;;;;;;;;;5068338;28;20033;-85
2023/10/19 13:10:37;;;;;;;4.07;2.33;;;;;;;;;;5070346;28;20029;-86
2023/10/19 13:13:05;;;;;;;2.80;1.60;;;;;;;;;;5070755;28;20016;-85
2023/10/19 13:15:35;;;;;;;3.67;2.15;;;;;;;;;;5070523;28;20029;-85
2023/10/19 13:18:01;;;;;;;2.53;1.58;;;;;;;;;;5069076;28;20094;-83
2023/10/19 13:20:28;;;;;;;2.88;1.85;;;;;;;;;;5069103;28;20052;-83
2023/10/19 13:22:55;;;;;;;3.08;2.03;;;;;;;;;;5071285;28;20025;-83
2023/10/19 13:25:38;;;;;;;2.67;1.90;;;;;;;;;;5072271;28;20029;-83
2023/10/19 13:28:10;;;;;;;3.90;1.35;;;;;;;;;;5070239;28;20024;-84
2023/10/19 13:30:38;;;;;;;5.32;2.53;;;;;;;;;;5072081;28;20056;-85
2023/10/19 13:33:06;;;;;;;1.08;1.02;;;;;;;;;;5072223;28;20028;-85
2023/10/19 13:35:32;;;;;;;2.42;1.92;;;;;;;;;;5071492;28;20518;-84
2023/10/19 13:37:57;;;;;;;1.58;1.23;;;;;;;;;;5073352;28;20064;-84
2023/10/19 13:40:23;;;;;;;2.72;1.55;;;;;;;;;;5073084;28;20059;-84
2023/10/19 13:42:49;;;;;;;3.15;1.85;;;;;;;;;;5071714;28;20459;-84
2023/10/19 13:45:14;;;;;;;2.33;1.73;;;;;;;;;;5070881;28;20032;-83
2023/10/19 13:47:40;;;;;;;2.58;1.60;;;;;;;;;;5071481;28;20051;-83
2023/10/19 13:50:07;;;;;;;1.92;1.38;;;;;;;;;;5070679;28;20098;-84
2023/10/19 13:52:34;;;;;;;2.47;1.88;;;;;;;;;;5073422;28;20073;-84
2023/10/19 13:54:59;;;;;;;1.58;1.23;;;;;;;;;;5072841;28;20029;-86
2023/10/19 13:57:25;;;;;;;2.67;1.48;;;;;;;;;;5071920;28;20460;-85
2023/10/19 13:59:50;;;;;;;3.53;2.53;;;;;;;;;;5071711;28;20054;-85
2023/10/19 14:02:16;;;;;;;1.05;0.95;;;;;;;;;;5072740;28;20032;-84
2023/10/19 14:04:41;;;;;;;1.65;1.33;;;;;;;;;;5071571;28;20024;-84
2023/10/19 14:07:07;;;;;;;2.05;1.35;;;;;;;;;;5070971;28;20037;-85
2023/10/19 14:09:33;;;;;;;1.70;1.40;;;;;;;;;;5070804;28;20032;-84
2023/10/19 14:11:58;;;;;;;5.40;1.63;;;;;;;;;;5072415;28;20071;-82
2023/10/19 14:14:24;;;;;;;2.22;1.20;;;;;;;;;;5070908;28;20028;-83
2023/10/19 14:16:50;;;;;;;2.17;1.55;;;;;;;;;;5070166;28;20024;-84
2023/10/19 14:19:16;;;;;;;3.88;2.20;;;;;;;;;;5072227;28;20166;-85
2023/10/19 14:21:45;;;;;;;2.65;1.70;;;;;;;;;;5070911;28;20032;-84
2023/10/19 14:24:11;;;;;;;2.08;1.33;;;;;;;;;;5070669;28;20043;-86
2023/10/19 14:26:38;;;;;;;3.40;1.88;;;;;;;;;;5070503;28;20503;-86
2023/10/19 14:29:04;;;;;;;3.67;1.75;;;;;;;;;;5071974;28;20028;-84
2023/10/19 14:31:29;;;;;;;1.77;1.30;;;;;;;;;;5072288;28;20104;-82
2023/10/19 14:33:54;;;;;;;3.85;2.28;;;;;;;;;;5070681;28;20041;-84
2023/10/19 14:36:20;;;;;;;2.63;1.60;;;;;;;;;;5070759;28;20488;-83
2023/10/19 14:38:46;;;;;;;2.15;1.38;;;;;;;;;;5072239;28;20434;-85
2023/10/19 14:41:11;;;;;;;2.97;1.50;;;;;;;;;;5070108;28;20031;-83
2023/10/19 14:43:37;;;;;;;3.28;2.13;;;;;;;;;;5072496;28;20032;-83
2023/10/19 14:46:06;;;;;;;3.15;1.83;;;;;;;;;;5070466;28;20024;-85
2023/10/19 14:48:31;;;;;;;1.98;1.52;;;;;;;;;;5070769;28;20361;-83
2023/10/19 14:50:57;;;;;;;2.03;1.77;;;;;;;;;;5070811;28;20024;-83
2023/10/19 14:53:24;;;;;;;3.20;1.77;;;;;;;;;;5070827;28;20107;-85
2023/10/19 14:55:50;;;;;;;2.50;1.73;;;;;;;;;;5070048;28;20119;-84
2023/10/19 14:58:16;;;;;;;1.73;1.52;;;;;;;;;;5070508;28;20124;-84
2023/10/19 15:00:54;;;;;;;2.92;1.88;;;;;;;;;;5071679;28;20020;-84
2023/10/19 15:03:20;;;;;;;2.38;1.65;;;;;;;;;;5070515;28;20029;-85
2023/10/19 15:05:51;;;;;;;2.33;1.48;;;;;;;;;;5069107;28;20362;-84
2023/10/19 15:08:17;;;;;;;2.17;1.70;;;;;;;;;;5070450;28;20036;-84
2023/10/19 15:10:42;;;;;;;1.88;1.45;;;;;;;;;;5070087;28;20032;-84
2023/10/19 15:13:08;;;;;;;2.65;1.80;;;;;;;;;;5070382;28;20105;-84
2023/10/19 15:15:33;;;;;;;2.03;1.42;;;;;;;;;;5069895;28;20093;-84
2023/10/19 15:17:59;;;;;;;3.28;2.28;;;;;;;;;;5070629;28;20024;-84
2023/10/19 15:20:26;;;;;;;2.83;1.83;;;;;;;;;;5071226;28;20028;-84
2023/10/19 15:22:55;;;;;;;3.25;1.65;;;;;;;;;;5071104;28;20451;-84
2023/10/19 15:25:24;;;;;;;2.63;1.55;;;;;;;;;;5069431;28;20070;-85
2023/10/19 15:27:49;;;;;;;3.63;2.28;;;;;;;;;;5070595;28;20431;-83
2023/10/19 15:30:17;;;;;;;1.67;1.58;;;;;;;;;;5067406;28;20101;-83
2023/10/19 15:32:43;;;;;;;2.90;1.50;;;;;;;;;;5071320;28;20028;-83
2023/10/19 15:35:11;;;;;;;7.55;2.67;;;;;;;;;;5069853;28;20381;-85
2023/10/19 15:37:37;;;;;;;2.40;1.70;;;;;;;;;;5069531;28;20529;-85
2023/10/19 15:40:06;;;;;;;2.22;1.33;;;;;;;;;;5070261;28;20514;-85
2023/10/19 15:42:35;;;;;;;2.08;1.48;;;;;;;;;;5070756;28;20410;-85
2023/10/19 15:45:01;;;;;;;2.15;1.60;;;;;;;;;;5070856;28;20017;-84
2023/10/19 15:47:26;;;;;;;1.60;0.90;;;;;;;;;;5071000;28;20024;-83
2023/10/19 15:49:55;;;;;;;2.25;1.80;;;;;;;;;;5068536;28;20107;-83
